Papaikou, Hawaii
Current Conditions -  °F | °C
As of 6:53 PM on Friday 28 Nov 2014 (Local Time) from PHTO Reporting Station
Overcast Overcast  
Wind Chill: 72°   Ceiling: 2300
Heat Index: 72°   Visibility: 10mi
Dew Point: 69°   Wind: 0mph
Humidity: 91%   Direction: NA
Pressure: 30.03"   Gusts: NA
Location:  19.78°N, 155.09°W
Report Text: PHTO 290453Z 00000KT 10SM BKN023 BKN029 OVC035 22/21 A3003 RMK AO2 RAB26E43 SLP168 P0000 T02220206 $
Loading
Personal Weather Stations






























Interactive Weather Map New forecast layout! Learn more

10-Day Weather Forecast

Advertisements
Track Severe Weather on mobile